createdAt,value
2022-12-15T00:00:00.508Z,71.6
2022-12-15T00:01:00.969Z,71.7
2022-12-15T00:02:00.551Z,71.8
2022-12-15T00:03:00.715Z,71.7
2022-12-15T00:04:00.503Z,71.7
2022-12-15T00:05:00.484Z,71.6
2022-12-15T00:06:00.586Z,71.5
2022-12-15T00:07:00.802Z,71.5
2022-12-15T00:08:00.524Z,71.5
2022-12-15T00:09:00.549Z,71.5
2022-12-15T00:10:00.488Z,71.5
2022-12-15T00:11:00.690Z,71.5
2022-12-15T00:12:00.429Z,71.6
2022-12-15T00:13:00.736Z,71.7
2022-12-15T00:14:00.485Z,71.9
2022-12-15T00:15:00.450Z,72.0
2022-12-15T00:16:00.556Z,72.0
2022-12-15T00:17:00.446Z,72.0
2022-12-15T00:18:00.485Z,72.0
2022-12-15T00:19:00.664Z,71.9
2022-12-15T00:20:00.454Z,71.8
2022-12-15T00:21:00.480Z,71.8
2022-12-15T00:22:00.422Z,71.8
2022-12-15T00:23:00.452Z,71.9
2022-12-15T00:24:00.490Z,72.0
2022-12-15T00:25:00.566Z,72.0
2022-12-15T00:26:00.500Z,72.0
2022-12-15T00:27:00.454Z,72.1
2022-12-15T00:28:00.456Z,71.9
2022-12-15T00:29:00.475Z,71.9
2022-12-15T00:30:00.483Z,71.9
2022-12-15T00:31:02.323Z,71.9
2022-12-15T00:32:00.574Z,72.1
2022-12-15T00:33:00.447Z,72.1
2022-12-15T00:34:00.459Z,72.0
2022-12-15T00:35:00.474Z,71.9
2022-12-15T00:36:00.459Z,71.9
2022-12-15T00:37:00.669Z,71.9
2022-12-15T00:38:00.533Z,71.9
2022-12-15T00:39:03.520Z,71.9
2022-12-15T00:40:00.470Z,71.8
2022-12-15T00:41:00.611Z,71.8
2022-12-15T00:42:00.615Z,71.8
2022-12-15T00:43:00.644Z,71.8
2022-12-15T00:44:00.469Z,71.7
2022-12-15T00:45:00.540Z,71.8
2022-12-15T00:46:00.500Z,71.9
2022-12-15T00:47:00.567Z,71.8
2022-12-15T00:48:00.512Z,71.8
2022-12-15T00:49:00.617Z,71.8
2022-12-15T00:50:00.427Z,71.7
2022-12-15T00:51:00.476Z,71.8
2022-12-15T00:52:00.423Z,71.9
2022-12-15T00:53:00.451Z,71.9
2022-12-15T00:54:00.451Z,71.9
2022-12-15T00:55:00.547Z,71.9
2022-12-15T00:56:00.487Z,71.8
2022-12-15T00:57:00.504Z,71.8
2022-12-15T00:58:00.472Z,71.8
2022-12-15T00:59:00.442Z,71.8
2022-12-15T01:00:00.451Z,71.8
2022-12-15T01:01:00.580Z,71.9
2022-12-15T01:02:00.659Z,71.9
2022-12-15T01:03:00.729Z,72.0
2022-12-15T01:04:00.548Z,72.1
2022-12-15T01:05:00.507Z,72.1
2022-12-15T01:06:00.456Z,72.1
2022-12-15T01:07:00.669Z,72.1
2022-12-15T01:08:00.457Z,72.1
2022-12-15T01:09:00.484Z,72.1
2022-12-15T01:10:00.491Z,72.2
2022-12-15T01:11:00.454Z,72.3
2022-12-15T01:12:00.593Z,72.4
2022-12-15T01:13:00.769Z,72.4
2022-12-15T01:14:00.451Z,72.3
2022-12-15T01:15:00.450Z,72.3
2022-12-15T01:16:00.528Z,72.3
2022-12-15T01:17:00.452Z,72.3
2022-12-15T01:18:00.478Z,72.2
2022-12-15T01:19:00.561Z,72.3
2022-12-15T01:20:00.447Z,72.3
2022-12-15T01:21:00.479Z,72.4
2022-12-15T01:22:00.529Z,72.4
2022-12-15T01:23:00.456Z,72.3
2022-12-15T01:24:00.447Z,72.3
2022-12-15T01:25:00.718Z,72.1
2022-12-15T01:26:00.472Z,72.2
2022-12-15T01:27:00.573Z,72.1
2022-12-15T01:28:00.424Z,72.0
2022-12-15T01:29:00.465Z,72.0
2022-12-15T01:30:00.834Z,72.1
2022-12-15T01:31:00.698Z,72.1
2022-12-15T01:32:00.499Z,72.2
2022-12-15T01:33:00.899Z,72.2
2022-12-15T01:34:00.983Z,72.3
2022-12-15T01:35:00.670Z,72.4
2022-12-15T01:36:00.482Z,72.5
2022-12-15T01:37:00.609Z,72.6
2022-12-15T01:38:00.942Z,72.6
2022-12-15T01:39:00.464Z,72.4
2022-12-15T01:40:00.512Z,72.3
2022-12-15T01:41:00.467Z,72.3
2022-12-15T01:42:00.518Z,72.3
2022-12-15T01:43:00.648Z,72.3
2022-12-15T01:44:00.478Z,72.2
2022-12-15T01:45:00.483Z,72.1
2022-12-15T01:46:00.446Z,72.1
2022-12-15T01:47:00.537Z,72.1
2022-12-15T01:48:00.482Z,72.3
2022-12-15T01:49:00.569Z,72.1
2022-12-15T01:50:00.445Z,72.0
2022-12-15T01:51:00.482Z,72.0
2022-12-15T01:52:00.494Z,71.9
2022-12-15T01:53:00.488Z,71.9
2022-12-15T01:54:00.450Z,71.7
2022-12-15T01:55:00.695Z,71.5
2022-12-15T01:56:00.448Z,71.4
2022-12-15T01:57:00.706Z,71.1
2022-12-15T01:58:00.481Z,71.0
2022-12-15T01:59:00.454Z,71.0
2022-12-15T02:00:00.448Z,71.2
2022-12-15T02:01:00.647Z,71.1
2022-12-15T02:02:00.687Z,71.1
2022-12-15T02:03:00.614Z,71.1
2022-12-15T02:04:00.474Z,71.0
2022-12-15T02:05:00.447Z,71.0
2022-12-15T02:06:00.423Z,71.1
2022-12-15T02:07:00.578Z,71.0
2022-12-15T02:08:00.428Z,70.9
2022-12-15T02:09:00.447Z,70.9
2022-12-15T02:10:00.426Z,70.8
2022-12-15T02:11:00.455Z,70.6
2022-12-15T02:12:00.616Z,70.4
2022-12-15T02:13:00.789Z,70.3
2022-12-15T02:14:00.454Z,70.3
2022-12-15T02:15:00.446Z,70.3
2022-12-15T02:16:00.496Z,70.2
2022-12-15T02:17:00.483Z,70.2
2022-12-15T02:18:00.469Z,70.3
2022-12-15T02:19:00.602Z,70.2
2022-12-15T02:20:00.525Z,70.0
2022-12-15T02:21:00.455Z,69.9
2022-12-15T02:22:00.447Z,69.8
2022-12-15T02:23:00.433Z,69.8
2022-12-15T02:24:00.420Z,69.7
2022-12-15T02:25:00.567Z,69.7
2022-12-15T02:26:00.455Z,69.7
2022-12-15T02:27:00.479Z,69.6
2022-12-15T02:28:00.480Z,69.5
2022-12-15T02:29:00.445Z,69.3
2022-12-15T02:30:00.452Z,69.3
2022-12-15T02:31:00.663Z,69.2
2022-12-15T02:32:00.582Z,69.1
2022-12-15T02:33:00.486Z,69.0
2022-12-15T02:34:00.564Z,68.9
2022-12-15T02:35:00.506Z,68.9
2022-12-15T02:36:00.509Z,68.9
2022-12-15T02:37:00.578Z,68.8
2022-12-15T02:38:00.452Z,68.8
2022-12-15T02:39:00.463Z,68.7
2022-12-15T02:40:00.493Z,68.6
2022-12-15T02:41:00.454Z,68.5
2022-12-15T02:42:00.610Z,68.4
2022-12-15T02:43:00.671Z,68.4
2022-12-15T02:44:00.512Z,68.5
2022-12-15T02:45:00.458Z,68.7
2022-12-15T02:46:00.538Z,68.7
2022-12-15T02:47:00.525Z,68.7
2022-12-15T02:48:00.425Z,68.8
2022-12-15T02:49:00.543Z,68.8
2022-12-15T02:50:00.423Z,68.8
2022-12-15T02:51:00.436Z,68.8
2022-12-15T02:52:00.481Z,68.8
2022-12-15T02:53:00.513Z,68.7
2022-12-15T02:54:00.483Z,68.7
2022-12-15T02:55:00.566Z,68.8
2022-12-15T02:56:00.438Z,68.9
2022-12-15T02:57:00.487Z,69.0
2022-12-15T02:58:00.503Z,69.1
2022-12-15T02:59:00.446Z,69.1
2022-12-15T03:00:00.447Z,69.2
2022-12-15T03:01:00.635Z,69.2
2022-12-15T03:02:00.653Z,69.4
2022-12-15T03:03:00.657Z,69.4
2022-12-15T03:04:00.454Z,69.4
2022-12-15T03:05:00.452Z,69.6
2022-12-15T03:06:00.484Z,69.8
2022-12-15T03:07:01.414Z,70.0
2022-12-15T03:08:00.447Z,70.1
2022-12-15T03:09:00.419Z,70.1
2022-12-15T03:10:00.481Z,70.2
2022-12-15T03:11:00.449Z,70.2
2022-12-15T03:12:00.480Z,70.2
2022-12-15T03:13:00.740Z,70.3
2022-12-15T03:14:00.453Z,70.4
2022-12-15T03:15:00.457Z,70.6
2022-12-15T03:16:00.567Z,70.5
2022-12-15T03:17:00.491Z,70.5
2022-12-15T03:18:00.470Z,70.6
2022-12-15T03:19:00.615Z,70.8
2022-12-15T03:20:00.515Z,70.5
2022-12-15T03:21:00.491Z,70.6
2022-12-15T03:22:00.426Z,70.9
2022-12-15T03:23:00.479Z,71.1
2022-12-15T03:24:00.450Z,71.2
2022-12-15T03:25:00.568Z,71.4
2022-12-15T03:26:00.450Z,71.6
2022-12-15T03:27:00.435Z,71.8
2022-12-15T03:28:00.610Z,71.8
2022-12-15T03:29:00.454Z,71.9
2022-12-15T03:30:00.487Z,72.1
2022-12-15T03:31:00.661Z,72.3
2022-12-15T03:32:00.548Z,72.5
2022-12-15T03:33:00.417Z,72.6
2022-12-15T03:34:00.455Z,72.7
2022-12-15T03:35:00.500Z,72.7
2022-12-15T03:36:00.452Z,72.8
2022-12-15T03:37:00.598Z,73.2
2022-12-15T03:38:00.454Z,73.3
2022-12-15T03:39:00.439Z,73.3
2022-12-15T03:40:00.457Z,73.4
2022-12-15T03:41:00.482Z,73.5
2022-12-15T03:42:00.485Z,73.9
2022-12-15T03:43:00.563Z,74.1
2022-12-15T03:44:00.611Z,74.0
2022-12-15T03:45:00.457Z,74.3
2022-12-15T03:46:00.595Z,74.7
2022-12-15T03:47:03.462Z,74.8
2022-12-15T03:48:00.516Z,74.8
2022-12-15T03:49:00.644Z,74.8
2022-12-15T03:50:00.513Z,75.0
2022-12-15T03:51:00.442Z,75.2
2022-12-15T03:52:00.477Z,75.1
2022-12-15T03:53:00.508Z,75.0
2022-12-15T03:54:00.431Z,74.8
2022-12-15T03:55:00.589Z,75.1
2022-12-15T03:56:00.476Z,75.3
2022-12-15T03:57:00.422Z,75.3
2022-12-15T03:58:00.456Z,75.2
2022-12-15T03:59:00.524Z,75.1
2022-12-15T04:00:00.555Z,75.2
2022-12-15T04:01:00.744Z,75.1
2022-12-15T04:02:00.711Z,75.0
2022-12-15T04:03:00.538Z,75.1
2022-12-15T04:04:01.564Z,75.1
2022-12-15T04:05:00.476Z,75.2
2022-12-15T04:06:00.449Z,75.1
2022-12-15T04:07:00.582Z,75.2
2022-12-15T04:08:00.420Z,75.2
2022-12-15T04:09:00.474Z,75.3
2022-12-15T04:10:00.446Z,75.4
2022-12-15T04:11:00.419Z,75.3
2022-12-15T04:12:00.424Z,75.4
2022-12-15T04:13:00.559Z,75.5
2022-12-15T04:14:00.462Z,75.6
2022-12-15T04:15:00.587Z,75.7
2022-12-15T04:16:00.425Z,75.7
2022-12-15T04:17:00.506Z,75.7
2022-12-15T04:18:00.424Z,75.7
2022-12-15T04:19:00.567Z,75.8
2022-12-15T04:20:00.451Z,75.7
2022-12-15T04:21:00.419Z,75.6
2022-12-15T04:22:00.457Z,75.6
2022-12-15T04:23:00.487Z,75.4
2022-12-15T04:24:00.454Z,75.4
2022-12-15T04:25:00.566Z,75.4
2022-12-15T04:26:00.429Z,75.5
2022-12-15T04:27:00.502Z,75.4
2022-12-15T04:28:01.815Z,75.3
2022-12-15T04:29:00.451Z,75.3
2022-12-15T04:30:00.557Z,75.2
2022-12-15T04:31:00.604Z,75.1
2022-12-15T04:32:00.498Z,75.0
2022-12-15T04:33:00.486Z,74.9
2022-12-15T04:34:00.460Z,74.8
2022-12-15T04:35:00.507Z,74.7
2022-12-15T04:36:00.516Z,74.6
2022-12-15T04:37:00.754Z,74.4
2022-12-15T04:38:00.463Z,74.2
2022-12-15T04:39:00.509Z,74.2
2022-12-15T04:40:00.535Z,74.2
2022-12-15T04:41:00.503Z,74.2
2022-12-15T04:42:00.496Z,74.0
2022-12-15T04:43:00.644Z,73.9
2022-12-15T04:44:00.475Z,73.8
2022-12-15T04:45:00.655Z,73.8
2022-12-15T04:46:00.506Z,73.7
2022-12-15T04:47:00.430Z,73.6
2022-12-15T04:48:00.427Z,73.5
2022-12-15T04:49:00.740Z,73.3
2022-12-15T04:50:00.450Z,73.2
2022-12-15T04:51:00.452Z,73.1
2022-12-15T04:52:00.429Z,73.0
2022-12-15T04:53:00.422Z,72.8
2022-12-15T04:54:00.454Z,72.7
2022-12-15T04:55:00.582Z,72.5
2022-12-15T04:56:00.459Z,72.4
2022-12-15T04:57:00.425Z,72.3
2022-12-15T04:58:00.428Z,72.2
2022-12-15T04:59:00.581Z,72.1
2022-12-15T05:00:00.545Z,72.0
2022-12-15T05:01:00.733Z,71.8
2022-12-15T05:02:00.645Z,71.8
2022-12-15T05:03:00.456Z,71.7
2022-12-15T05:04:00.492Z,71.5
2022-12-15T05:05:00.456Z,71.4
2022-12-15T05:06:00.455Z,71.3
2022-12-15T05:07:00.685Z,71.2
2022-12-15T05:08:00.422Z,71.2
2022-12-15T05:09:00.485Z,71.2
2022-12-15T05:10:03.232Z,71.1
2022-12-15T05:11:00.424Z,70.9
2022-12-15T05:12:00.467Z,70.7
2022-12-15T05:13:00.655Z,70.6
2022-12-15T05:14:00.448Z,70.6
2022-12-15T05:15:00.561Z,70.5
2022-12-15T05:16:00.632Z,70.5
2022-12-15T05:17:00.469Z,70.3
2022-12-15T05:18:00.455Z,70.2
2022-12-15T05:19:00.638Z,70.0
2022-12-15T05:20:00.483Z,69.9
2022-12-15T05:21:00.528Z,69.9
2022-12-15T05:22:00.479Z,69.9
2022-12-15T05:23:00.497Z,69.8
2022-12-15T05:24:00.443Z,69.8
2022-12-15T05:25:00.603Z,69.7
2022-12-15T05:26:00.482Z,69.6
2022-12-15T05:27:00.451Z,69.6
2022-12-15T05:28:00.478Z,69.6
2022-12-15T05:29:00.428Z,69.6
2022-12-15T05:30:00.650Z,69.4
2022-12-15T05:31:00.591Z,69.3
2022-12-15T05:32:00.460Z,69.3
2022-12-15T05:33:00.482Z,69.4
2022-12-15T05:34:05.083Z,69.3
2022-12-15T05:35:00.446Z,69.3
2022-12-15T05:36:00.425Z,69.2
2022-12-15T05:37:00.583Z,69.1
2022-12-15T05:38:00.478Z,69.1
2022-12-15T05:39:00.448Z,69.0
2022-12-15T05:40:00.484Z,68.7
2022-12-15T05:41:00.481Z,68.5
2022-12-15T05:42:00.488Z,68.3
2022-12-15T05:43:00.615Z,68.2
2022-12-15T05:44:00.437Z,68.2
2022-12-15T05:45:00.575Z,68.2
2022-12-15T05:46:00.525Z,68.1
2022-12-15T05:47:00.457Z,67.7
2022-12-15T05:48:00.467Z,67.8
2022-12-15T05:49:00.545Z,67.4
2022-12-15T05:50:00.467Z,67.4
2022-12-15T05:51:00.478Z,67.3
2022-12-15T05:52:00.423Z,66.9
2022-12-15T05:53:00.481Z,66.3
2022-12-15T05:54:00.440Z,66.1
2022-12-15T05:55:00.588Z,65.7
2022-12-15T05:56:00.449Z,65.8
2022-12-15T05:57:00.461Z,66.1
2022-12-15T05:58:00.449Z,66.0
2022-12-15T05:59:00.424Z,65.9
2022-12-15T06:00:00.654Z,65.7
2022-12-15T06:01:00.748Z,65.4
2022-12-15T06:02:00.561Z,65.6
2022-12-15T06:03:00.601Z,66.0
2022-12-15T06:04:00.498Z,66.3
2022-12-15T06:05:00.686Z,66.6
2022-12-15T06:06:00.449Z,66.8
2022-12-15T06:07:00.789Z,67.0
2022-12-15T06:08:00.496Z,67.3
2022-12-15T06:09:00.505Z,67.5
2022-12-15T06:10:00.448Z,67.8
2022-12-15T06:11:00.455Z,68.2
2022-12-15T06:12:00.424Z,68.5
2022-12-15T06:13:00.639Z,68.7
2022-12-15T06:14:00.481Z,68.8
2022-12-15T06:15:00.455Z,68.9
2022-12-15T06:16:00.714Z,69.0
2022-12-15T06:17:00.544Z,69.1
2022-12-15T06:18:00.455Z,69.0
2022-12-15T06:19:00.707Z,69.0
2022-12-15T06:20:00.419Z,68.8
2022-12-15T06:21:00.422Z,68.8
2022-12-15T06:22:00.432Z,68.7
2022-12-15T06:23:00.460Z,68.6
2022-12-15T06:24:00.452Z,68.4
2022-12-15T06:25:00.590Z,68.5
2022-12-15T06:26:00.425Z,68.3
2022-12-15T06:27:00.449Z,68.0
2022-12-15T06:28:01.983Z,68.0
2022-12-15T06:29:00.431Z,68.0
2022-12-15T06:30:00.482Z,68.0
2022-12-15T06:31:00.680Z,67.6
2022-12-15T06:32:00.436Z,67.8
2022-12-15T06:33:00.463Z,67.9
2022-12-15T06:34:02.273Z,68.0
2022-12-15T06:35:00.451Z,68.2
2022-12-15T06:36:00.474Z,68.3
2022-12-15T06:37:00.589Z,68.6
2022-12-15T06:38:00.487Z,68.5
2022-12-15T06:39:00.556Z,68.6
2022-12-15T06:40:00.485Z,68.5
2022-12-15T06:41:00.490Z,68.4
2022-12-15T06:42:00.529Z,68.5
2022-12-15T06:43:00.687Z,68.5
2022-12-15T06:44:00.536Z,68.6
2022-12-15T06:45:00.533Z,68.7
2022-12-15T06:46:00.588Z,68.5
2022-12-15T06:47:00.601Z,68.8
2022-12-15T06:48:01.764Z,68.8
2022-12-15T06:49:00.696Z,68.6
2022-12-15T06:50:00.449Z,68.4
2022-12-15T06:51:00.552Z,68.3
2022-12-15T06:52:00.480Z,68.1
2022-12-15T06:53:00.426Z,68.4
2022-12-15T06:54:00.420Z,68.4
2022-12-15T06:55:00.715Z,68.2
2022-12-15T06:56:00.425Z,68.1
2022-12-15T06:57:00.434Z,67.9
2022-12-15T06:58:00.455Z,67.7
2022-12-15T06:59:00.454Z,67.5
2022-12-15T07:00:00.418Z,67.3
2022-12-15T07:01:00.614Z,67.0
2022-12-15T07:02:00.681Z,67.6
2022-12-15T07:03:00.679Z,67.4
2022-12-15T07:04:00.722Z,67.0
2022-12-15T07:05:00.486Z,67.0
2022-12-15T07:06:00.452Z,67.0
2022-12-15T07:07:00.661Z,66.6
2022-12-15T07:08:00.459Z,66.3
2022-12-15T07:09:00.473Z,66.2
2022-12-15T07:10:00.489Z,66.0
2022-12-15T07:11:00.465Z,65.8
2022-12-15T07:12:00.484Z,65.8
2022-12-15T07:13:00.680Z,65.5
2022-12-15T07:14:00.421Z,65.6
2022-12-15T07:15:00.485Z,65.4
2022-12-15T07:16:00.682Z,65.0
2022-12-15T07:17:00.609Z,64.7
2022-12-15T07:18:00.450Z,64.6
2022-12-15T07:19:00.559Z,64.5
2022-12-15T07:20:00.488Z,64.3
2022-12-15T07:21:00.484Z,64.0
2022-12-15T07:22:00.503Z,63.9
2022-12-15T07:23:00.454Z,63.9
2022-12-15T07:24:01.488Z,63.8
2022-12-15T07:25:00.634Z,63.7
2022-12-15T07:26:00.506Z,63.7
2022-12-15T07:27:00.460Z,63.8
2022-12-15T07:28:00.546Z,63.7
2022-12-15T07:29:00.506Z,63.9
2022-12-15T07:30:00.545Z,63.8
2022-12-15T07:31:00.821Z,63.9
2022-12-15T07:32:00.705Z,64.0
2022-12-15T07:33:00.422Z,63.8
2022-12-15T07:34:00.424Z,63.7
2022-12-15T07:35:00.483Z,63.9
2022-12-15T07:36:00.413Z,64.0
2022-12-15T07:37:00.625Z,64.2
2022-12-15T07:38:00.479Z,64.1
2022-12-15T07:39:00.488Z,63.7
2022-12-15T07:40:00.445Z,63.5
2022-12-15T07:41:00.426Z,63.2
2022-12-15T07:42:00.471Z,63.1
2022-12-15T07:43:00.745Z,62.8
2022-12-15T07:44:00.418Z,62.4
2022-12-15T07:45:00.445Z,62.4
2022-12-15T07:46:00.542Z,62.0
2022-12-15T07:47:00.547Z,61.6
2022-12-15T07:48:00.534Z,61.3
2022-12-15T07:49:00.588Z,60.9
2022-12-15T07:50:00.474Z,60.9
2022-12-15T07:51:08.290Z,60.9
2022-12-15T07:52:00.427Z,60.8
2022-12-15T07:53:00.464Z,60.7
2022-12-15T07:54:00.452Z,60.6
2022-12-15T07:55:00.607Z,60.3
2022-12-15T07:56:07.416Z,60.3
2022-12-15T07:57:00.450Z,60.3
2022-12-15T07:58:00.484Z,60.1
2022-12-15T07:59:00.455Z,59.8
2022-12-15T08:00:00.432Z,59.7
2022-12-15T08:01:00.743Z,59.5
2022-12-15T08:02:00.671Z,59.6
2022-12-15T08:03:00.712Z,59.5
2022-12-15T08:04:00.501Z,59.5
2022-12-15T08:05:00.506Z,59.4
2022-12-15T08:06:04.002Z,59.3
2022-12-15T08:07:00.650Z,59.4
2022-12-15T08:08:00.495Z,59.2
2022-12-15T08:09:00.502Z,59.1
2022-12-15T08:10:00.527Z,59.1
2022-12-15T08:11:00.779Z,59.3
2022-12-15T08:12:00.464Z,59.6
2022-12-15T08:13:00.663Z,59.9
2022-12-15T08:14:03.433Z,60.1
2022-12-15T08:15:00.465Z,60.3
2022-12-15T08:16:00.616Z,60.1
2022-12-15T08:17:00.625Z,60.3
2022-12-15T08:18:00.615Z,60.4
2022-12-15T08:19:00.794Z,60.6
2022-12-15T08:20:04.788Z,60.6
2022-12-15T08:21:00.458Z,60.6
2022-12-15T08:22:00.427Z,60.5
2022-12-15T08:23:00.454Z,60.5
2022-12-15T08:24:00.419Z,60.3
2022-12-15T08:25:00.749Z,60.3
2022-12-15T08:26:00.416Z,60.2
2022-12-15T08:27:00.468Z,60.5
2022-12-15T08:28:00.463Z,60.4
2022-12-15T08:29:17.248Z,60.5
2022-12-15T08:30:00.479Z,60.5
2022-12-15T08:31:00.638Z,60.7
2022-12-15T08:32:00.540Z,60.7
2022-12-15T08:33:00.704Z,60.7
2022-12-15T08:34:00.881Z,60.8
2022-12-15T08:35:00.423Z,60.8
2022-12-15T08:36:00.446Z,61.0
2022-12-15T08:37:00.551Z,61.0
2022-12-15T08:38:05.226Z,61.1
2022-12-15T08:39:00.427Z,61.0
2022-12-15T08:40:00.478Z,61.1
2022-12-15T08:41:00.456Z,61.1
2022-12-15T08:42:00.454Z,61.4
2022-12-15T08:43:00.646Z,61.3
2022-12-15T08:44:00.465Z,61.2
2022-12-15T08:45:00.416Z,61.1
2022-12-15T08:46:00.553Z,61.0
2022-12-15T08:47:00.474Z,60.8
2022-12-15T08:48:00.448Z,60.5
2022-12-15T08:49:00.648Z,60.0
2022-12-15T08:50:00.533Z,59.6
2022-12-15T08:51:00.479Z,58.9
2022-12-15T08:52:00.450Z,58.6
2022-12-15T08:53:29.627Z,58.4
2022-12-15T08:54:00.455Z,58.1
2022-12-15T08:55:00.604Z,58.0
2022-12-15T08:56:00.513Z,57.0
2022-12-15T08:57:00.532Z,57.0
2022-12-15T08:58:00.501Z,55.6
2022-12-15T08:59:00.503Z,54.6
2022-12-15T09:00:00.445Z,54.3
2022-12-15T09:01:00.716Z,54.0
2022-12-15T09:02:00.624Z,52.9
2022-12-15T09:03:00.465Z,51.8
2022-12-15T09:04:00.677Z,51.9
2022-12-15T09:05:00.448Z,48.3
2022-12-15T09:06:00.415Z,48.7
2022-12-15T09:07:00.681Z,49.8
2022-12-15T09:08:06.197Z,50.3
2022-12-15T09:09:00.414Z,50.7
2022-12-15T09:10:00.420Z,50.5
2022-12-15T09:11:00.448Z,50.5
2022-12-15T09:12:00.489Z,48.5
2022-12-15T09:13:00.596Z,48.7
2022-12-15T09:14:00.478Z,48.6
2022-12-15T09:15:00.477Z,48.8
2022-12-15T09:16:09.282Z,48.3
2022-12-15T09:17:00.472Z,45.3
2022-12-15T09:18:00.454Z,42.8
2022-12-15T09:19:00.583Z,42.7
2022-12-15T09:20:00.442Z,41.7
2022-12-15T09:21:00.479Z,40.3
2022-12-15T09:22:00.799Z,40.2
2022-12-15T09:23:00.931Z,42.3
2022-12-15T09:24:00.777Z,44.4
2022-12-15T09:25:00.791Z,44.9
2022-12-15T09:26:00.526Z,45.6
2022-12-15T09:27:00.620Z,43.8
2022-12-15T09:28:00.442Z,41.7
2022-12-15T09:30:00.889Z,41.3
2022-12-15T09:31:00.813Z,43.0
2022-12-15T09:32:00.731Z,44.3
2022-12-15T09:33:00.689Z,44.1
2022-12-15T09:34:00.919Z,45.2
2022-12-15T09:35:00.727Z,46.5
2022-12-15T09:36:00.896Z,47.7
2022-12-15T09:37:00.719Z,48.7
2022-12-15T09:38:00.740Z,49.4
2022-12-15T09:39:00.791Z,49.9
2022-12-15T09:40:00.817Z,50.9
2022-12-15T09:41:00.711Z,51.8
2022-12-15T09:42:00.891Z,52.8
2022-12-15T09:43:33.022Z,53.4
2022-12-15T09:44:00.689Z,53.5
2022-12-15T09:45:00.746Z,53.5
2022-12-15T09:46:00.801Z,53.6
2022-12-15T09:47:00.715Z,53.9
2022-12-15T09:48:00.822Z,53.9
2022-12-15T09:49:00.870Z,54.2
2022-12-15T09:50:00.740Z,54.3
2022-12-15T09:51:00.720Z,54.3
2022-12-15T09:52:01.068Z,54.4
2022-12-15T09:53:00.800Z,54.4
2022-12-15T09:54:01.502Z,54.3
2022-12-15T09:55:00.766Z,54.4
2022-12-15T09:56:00.716Z,54.5
2022-12-15T09:57:00.704Z,54.2
2022-12-15T09:58:01.465Z,54.5
2022-12-15T09:59:00.693Z,54.6
2022-12-15T10:00:00.911Z,54.5
2022-12-15T10:01:00.702Z,54.5
2022-12-15T10:02:00.811Z,54.7
2022-12-15T10:03:01.019Z,54.7
2022-12-15T10:04:01.058Z,55.1
2022-12-15T10:05:01.007Z,55.3
2022-12-15T10:06:17.119Z,55.4
2022-12-15T10:07:00.732Z,55.7
2022-12-15T10:08:00.728Z,55.9
2022-12-15T10:09:00.822Z,56.3
2022-12-15T10:10:00.813Z,56.3
2022-12-15T10:11:00.743Z,56.1
2022-12-15T10:12:00.907Z,56.1
2022-12-15T10:13:02.498Z,56.2
2022-12-15T10:14:00.790Z,56.4
2022-12-15T10:15:00.738Z,56.5
2022-12-15T10:16:00.800Z,56.5
2022-12-15T10:17:00.735Z,56.6
2022-12-15T10:18:00.889Z,56.7
2022-12-15T10:19:01.889Z,56.5
2022-12-15T10:20:00.862Z,56.6
2022-12-15T10:21:00.721Z,56.9
2022-12-15T10:22:00.713Z,57.0
2022-12-15T10:23:00.685Z,57.0
2022-12-15T10:24:01.008Z,57.2
2022-12-15T10:25:09.649Z,57.2
2022-12-15T10:26:00.688Z,57.4
2022-12-15T10:27:00.712Z,57.6
2022-12-15T10:28:00.743Z,57.6
2022-12-15T10:29:00.688Z,57.3
2022-12-15T10:30:01.030Z,57.4
2022-12-15T10:31:00.863Z,57.6
2022-12-15T10:32:00.779Z,57.9
2022-12-15T10:33:00.838Z,58.0
2022-12-15T10:34:00.839Z,58.1
2022-12-15T10:35:01.000Z,58.2
2022-12-15T10:36:00.877Z,58.1
2022-12-15T10:37:00.803Z,58.0
2022-12-15T10:38:00.728Z,57.9
2022-12-15T10:39:00.723Z,57.7
2022-12-15T10:40:00.746Z,57.6
2022-12-15T10:41:00.748Z,57.4
2022-12-15T10:42:00.840Z,57.2
2022-12-15T10:43:00.718Z,57.0
2022-12-15T10:44:00.722Z,56.8
2022-12-15T10:45:00.716Z,57.0
2022-12-15T10:46:00.762Z,57.1
2022-12-15T10:47:00.689Z,57.1
2022-12-15T10:48:00.887Z,57.1
2022-12-15T10:49:00.722Z,57.2
2022-12-15T10:50:00.797Z,57.0
2022-12-15T10:51:00.737Z,56.9
2022-12-15T10:52:00.780Z,56.9
2022-12-15T10:53:00.791Z,56.7
2022-12-15T10:54:00.891Z,56.8
2022-12-15T10:55:00.708Z,56.6
2022-12-15T10:56:00.791Z,55.6
2022-12-15T10:57:00.736Z,53.6
2022-12-15T10:58:00.777Z,49.9
2022-12-15T10:59:00.796Z,47.1
2022-12-15T11:00:00.952Z,45.2
2022-12-15T11:01:00.749Z,46.7
2022-12-15T11:02:00.915Z,48.0
2022-12-15T11:03:01.025Z,49.5
2022-12-15T11:04:01.009Z,50.3
2022-12-15T11:05:00.823Z,50.9
2022-12-15T11:06:00.992Z,51.9
2022-12-15T11:07:00.743Z,52.7
2022-12-15T11:08:00.694Z,53.4
2022-12-15T11:09:00.687Z,54.1
2022-12-15T11:10:00.720Z,54.7
2022-12-15T11:11:00.748Z,55.3
2022-12-15T11:12:00.819Z,56.1
2022-12-15T11:13:00.726Z,56.8
2022-12-15T11:14:00.715Z,57.0
2022-12-15T11:15:00.718Z,57.4
2022-12-15T11:16:00.743Z,57.7
2022-12-15T11:17:00.719Z,58.2
2022-12-15T11:18:00.847Z,58.4
2022-12-15T11:19:00.710Z,58.9
2022-12-15T11:20:03.049Z,59.0
2022-12-15T11:21:00.912Z,59.1
2022-12-15T11:22:00.773Z,59.4
2022-12-15T11:23:00.700Z,59.9
2022-12-15T11:24:00.861Z,60.2
2022-12-15T11:25:00.745Z,60.3
2022-12-15T11:26:06.705Z,60.4
2022-12-15T11:27:00.789Z,61.0
2022-12-15T11:28:00.710Z,61.2
2022-12-15T11:29:00.692Z,61.2
2022-12-15T11:30:00.871Z,61.2
2022-12-15T11:31:00.683Z,61.4
2022-12-15T11:32:06.776Z,61.6
2022-12-15T11:33:00.809Z,61.9
2022-12-15T11:34:00.687Z,61.8
2022-12-15T11:35:00.711Z,61.9
2022-12-15T11:36:00.891Z,61.8
2022-12-15T11:37:00.880Z,61.8
2022-12-15T11:38:00.894Z,61.9
2022-12-15T11:39:00.862Z,62.2
2022-12-15T11:40:00.765Z,62.4
2022-12-15T11:41:00.715Z,62.5
2022-12-15T11:42:00.865Z,62.4
2022-12-15T11:43:00.718Z,62.3
2022-12-15T11:44:04.319Z,62.3
2022-12-15T11:45:00.745Z,62.2
2022-12-15T11:46:00.752Z,62.1
2022-12-15T11:47:00.721Z,62.1
2022-12-15T11:48:00.833Z,62.1
2022-12-15T11:49:00.718Z,62.0
2022-12-15T11:50:00.692Z,61.8
2022-12-15T11:51:00.726Z,61.8
2022-12-15T11:52:00.711Z,61.7
2022-12-15T11:53:00.923Z,61.5
2022-12-15T11:54:00.880Z,61.4
2022-12-15T11:55:00.762Z,61.4
2022-12-15T11:56:00.781Z,61.2
2022-12-15T11:57:00.718Z,61.2
2022-12-15T11:58:00.826Z,61.2
2022-12-15T11:59:00.722Z,60.9
2022-12-15T12:00:01.066Z,60.8
2022-12-15T12:01:00.766Z,60.6
2022-12-15T12:03:00.887Z,60.7
2022-12-15T12:04:00.815Z,60.7
2022-12-15T12:05:00.699Z,60.8
2022-12-15T12:06:01.155Z,60.8
2022-12-15T12:07:00.685Z,60.7
2022-12-15T12:08:01.004Z,60.8
2022-12-15T12:09:00.750Z,60.8
2022-12-15T12:10:00.739Z,60.8
2022-12-15T12:11:00.746Z,60.8
2022-12-15T12:12:00.807Z,61.0
2022-12-15T12:13:00.812Z,61.0
2022-12-15T12:14:00.720Z,61.2
2022-12-15T12:15:00.722Z,61.3
2022-12-15T12:16:00.716Z,61.3
2022-12-15T12:17:00.717Z,61.4
2022-12-15T12:18:00.883Z,61.6
2022-12-15T12:19:00.823Z,61.7
2022-12-15T12:20:00.718Z,61.9
2022-12-15T12:21:00.797Z,62.0
2022-12-15T12:22:00.782Z,62.2
2022-12-15T12:23:00.894Z,62.2
2022-12-15T12:24:00.867Z,62.4
2022-12-15T12:25:00.725Z,62.4
2022-12-15T12:26:03.265Z,62.4
2022-12-15T12:27:00.741Z,62.5
2022-12-15T12:28:00.760Z,62.5
2022-12-15T12:29:00.760Z,63.0
2022-12-15T12:30:01.155Z,63.1
2022-12-15T12:31:00.741Z,63.1
2022-12-15T12:32:04.931Z,63.2
2022-12-15T12:33:00.714Z,63.2
2022-12-15T12:34:00.694Z,63.2
2022-12-15T12:35:31.676Z,63.2
2022-12-15T12:36:00.835Z,63.2
2022-12-15T12:37:00.763Z,63.3
2022-12-15T12:38:03.221Z,63.6
2022-12-15T12:39:00.709Z,63.8
2022-12-15T12:40:00.712Z,63.8
2022-12-15T12:41:00.712Z,63.9
2022-12-15T12:42:00.835Z,63.9
2022-12-15T12:43:00.720Z,63.9
2022-12-15T12:44:00.718Z,63.8
2022-12-15T12:45:00.717Z,63.9
2022-12-15T12:46:00.709Z,64.1
2022-12-15T12:47:00.721Z,64.0
2022-12-15T12:48:00.934Z,64.2
2022-12-15T12:49:00.765Z,64.3
2022-12-15T12:50:00.744Z,64.4
2022-12-15T12:51:00.788Z,64.3
2022-12-15T12:52:00.720Z,64.4
2022-12-15T12:53:00.931Z,64.3
2022-12-15T12:54:00.832Z,64.3
2022-12-15T12:55:00.756Z,64.3
2022-12-15T12:56:00.754Z,64.3
2022-12-15T12:57:00.694Z,64.5
2022-12-15T12:58:00.744Z,64.7
2022-12-15T12:59:00.771Z,64.8
2022-12-15T13:00:00.952Z,64.9
2022-12-15T13:01:00.918Z,65.2
2022-12-15T13:02:00.834Z,65.3
2022-12-15T13:03:00.782Z,65.3
2022-12-15T13:04:00.724Z,65.3
2022-12-15T13:05:00.746Z,65.3
2022-12-15T13:06:00.949Z,65.3
2022-12-15T13:07:00.729Z,65.4
2022-12-15T13:08:00.811Z,65.4
2022-12-15T13:09:00.707Z,65.4
2022-12-15T13:10:00.748Z,65.4
2022-12-15T13:11:00.703Z,65.6
2022-12-15T13:12:03.195Z,65.6
2022-12-15T13:13:00.685Z,65.6
2022-12-15T13:14:00.743Z,65.6
2022-12-15T13:15:00.746Z,65.5
2022-12-15T13:16:00.746Z,65.4
2022-12-15T13:17:25.329Z,65.5
2022-12-15T13:18:00.928Z,65.5
2022-12-15T13:19:00.781Z,65.5
2022-12-15T13:20:00.796Z,65.5